This is the latest recevied weather packets stored in our database for station/object K7GFH-13. If no packets are shown the sender has not sent any weather packets the latest 10 day(s).
| Time | Temp. | Humidity | Pressure | Rain* | Wind** | Luminosity | Snow |
|---|---|---|---|---|---|---|---|
| 1777867859 | 25.56° C | 39% | 1009.2 hPa | 0 mm | - | 0 W/m² | - |
| 1777866955 | 25.56° C | 39% | 1009.2 hPa | 0 mm | - | 0 W/m² | - |
| 1777866051 | 26.11° C | 38% | 1009.1 hPa | 0 mm | - | 0 W/m² | - |
| 1777840767 | 29.44° C | 31% | 1011.8 hPa | 0 mm | - | 709 W/m² | - |
| 1777832649 | 25.56° C | 41% | 1013.2 hPa | 0 mm | - | 631 W/m² | - |
| 1777827232 | 20° C | 62% | 1013.9 hPa | 0 mm | - | 457 W/m² | - |
| 1777826333 | 20° C | 63% | 1013.9 hPa | 0 mm | - | 420 W/m² | - |
| 1777824527 | 17.78° C | 70% | 1014.1 hPa | 0 mm | - | 346 W/m² | - |
| 1777823623 | 18.89° C | 64% | 1013.9 hPa | 0 mm | - | 307 W/m² | - |
| 1777821819 | 16.67° C | 73% | 1014.2 hPa | 0 mm | - | 262 W/m² | - |
| 1777820917 | 14.44° C | 81% | 1014 hPa | 0 mm | - | 224 W/m² | - |
| 1777819111 | 13.89° C | 81% | 1014.2 hPa | 0 mm | - | 82 W/m² | - |
| 1777817303 | 12.78° C | 81% | 1013.8 hPa | 0 mm | - | 55 W/m² | - |
| 1777806481 | 13.33° C | 81% | 1013.8 hPa | 0 mm | - | 0 W/m² | - |
| 1777805577 | 12.78° C | 83% | 1014.1 hPa | 0 mm | - | 0 W/m² | - |
| 1777803771 | 12.78° C | 87% | 1014.2 hPa | 0 mm | - | 0 W/m² | - |
| 1777802867 | 13.33° C | 86% | 1014.1 hPa | 0 mm | - | 0 W/m² | - |
| 1777801063 | 12.78° C | 90% | 1014.4 hPa | 0 mm | - | 0 W/m² | - |
| 1777800159 | 13.33° C | 89% | 1014.5 hPa | 0 mm | - | 0 W/m² | - |
| 1777799258 | 13.33° C | 89% | 1014.6 hPa | 0 mm | - | 0 W/m² | - |
| 1777798353 | 14.44° C | 84% | 1014.6 hPa | 0 mm | - | 0 W/m² | - |
| 1777797451 | 13.33° C | 90% | 1014.6 hPa | 0 mm | - | 0 W/m² | - |
| 1777796547 | 13.89° C | 91% | 1014.3 hPa | 0 mm | - | 0 W/m² | - |
| 1777795646 | 12.78° C | 94% | 1014.7 hPa | 0 mm | - | 0 W/m² | - |
| 1777794742 | 13.33° C | 92% | 1014.7 hPa | 0 mm | - | 0 W/m² | - |
* Rain latest hour (hover to see other rain measurements)
** Current wind speed in m/s (hover to see current wind gust speed)